KBAM/BAM METAR and TAF weather

Enter ICAO airport designator
Station Type Date Time Source
KBAM METAR 2021/07/30 07:35 UTC NOAA

KBAM 300735Z AUTO 11003KT 10SM CLR 24/06 A3013 RMK AO1


Station Type Date Time Source
KBAM Decoded METAR 2021/07/30 07:35 UTC NOAA

Station name not available
Jul 30, 2021 - 03:35 AM EDT / 2021.07.30 0735 UTC
Wind: from the ESE (110 degrees) at 3 MPH (3 KT):0
Visibility: 10 mile(s):0
Sky conditions: clear
Temperature: 75 F (24 C)
Dew Point: 42 F (6 C)
Relative Humidity: 31%
Pressure (altimeter): 30.13 in. Hg (1020 hPa)
ob: KBAM 300735Z AUTO 11003KT 10SM CLR 24/06 A3013 RMK AO1
cycle: 7

Station Type Date Time Source
KBAM TAF 2021/07/30 06:22 UTC NOAA

TAF KBAM 300520Z 3006/3106 VRB06KT P6SM BKN130 OVC250
FM302100 VRB06KT P6SM VCTS BKN080CB OVC100
FM310000 VRB06KT P6SM -TSRA BKN080CB OVC100

Example: see airport list